sensor_id;sensor_type;location;lat;lon;timestamp;P1;durP1;ratioP1;P2;durP2;ratioP2
60088;SDS011;45961;53.574;55.878;2023-07-02T00:00:23;7.53;;;6.80;;
60088;SDS011;45961;53.574;55.878;2023-07-02T00:01:24;7.75;;;6.95;;
60088;SDS011;45961;53.574;55.878;2023-07-02T00:02:25;8.02;;;7.18;;
60088;SDS011;45961;53.574;55.878;2023-07-02T00:03:26;7.15;;;6.55;;
60088;SDS011;45961;53.574;55.878;2023-07-02T00:04:29;11.27;;;7.60;;
60088;SDS011;45961;53.574;55.878;2023-07-02T00:05:30;7.95;;;7.20;;
60088;SDS011;45961;53.574;55.878;2023-07-02T00:06:31;7.80;;;7.00;;
60088;SDS011;45961;53.574;55.878;2023-07-02T00:07:33;7.80;;;7.05;;
60088;SDS011;45961;53.574;55.878;2023-07-02T00:08:36;8.88;;;8.05;;
60088;SDS011;45961;53.574;55.878;2023-07-02T00:09:37;8.13;;;7.32;;
60088;SDS011;45961;53.574;55.878;2023-07-02T00:10:38;7.15;;;6.45;;
60088;SDS011;45961;53.574;55.878;2023-07-02T00:11:39;8.05;;;7.28;;
60088;SDS011;45961;53.574;55.878;2023-07-02T00:12:41;7.97;;;6.90;;
60088;SDS011;45961;53.574;55.878;2023-07-02T00:13:44;8.43;;;6.78;;
60088;SDS011;45961;53.574;55.878;2023-07-02T00:14:45;7.65;;;7.00;;
60088;SDS011;45961;53.574;55.878;2023-07-02T00:15:47;10.10;;;6.97;;
60088;SDS011;45961;53.574;55.878;2023-07-02T00:17:49;7.33;;;6.63;;
60088;SDS011;45961;53.574;55.878;2023-07-02T00:18:49;7.55;;;6.78;;
60088;SDS011;45961;53.574;55.878;2023-07-02T00:19:53;8.38;;;7.53;;
60088;SDS011;45961;53.574;55.878;2023-07-02T00:20:54;8.18;;;7.38;;
60088;SDS011;45961;53.574;55.878;2023-07-02T00:21:55;9.63;;;8.40;;
60088;SDS011;45961;53.574;55.878;2023-07-02T00:22:56;8.65;;;7.38;;
60088;SDS011;45961;53.574;55.878;2023-07-02T00:23:57;8.20;;;7.38;;
60088;SDS011;45961;53.574;55.878;2023-07-02T00:24:58;8.40;;;7.60;;
60088;SDS011;45961;53.574;55.878;2023-07-02T00:25:59;8.82;;;8.02;;
60088;SDS011;45961;53.574;55.878;2023-07-02T00:27:02;10.07;;;9.07;;
60088;SDS011;45961;53.574;55.878;2023-07-02T00:28:03;10.45;;;8.30;;
60088;SDS011;45961;53.574;55.878;2023-07-02T00:29:04;9.25;;;8.35;;
60088;SDS011;45961;53.574;55.878;2023-07-02T00:30:07;10.32;;;8.32;;
60088;SDS011;45961;53.574;55.878;2023-07-02T00:31:08;10.27;;;9.32;;
60088;SDS011;45961;53.574;55.878;2023-07-02T00:32:09;9.57;;;8.68;;
60088;SDS011;45961;53.574;55.878;2023-07-02T00:33:10;8.52;;;7.75;;
60088;SDS011;45961;53.574;55.878;2023-07-02T00:34:11;10.07;;;8.85;;
60088;SDS011;45961;53.574;55.878;2023-07-02T00:35:14;9.32;;;8.30;;
60088;SDS011;45961;53.574;55.878;2023-07-02T00:36:15;9.10;;;8.20;;
60088;SDS011;45961;53.574;55.878;2023-07-02T00:37:16;8.65;;;7.82;;
60088;SDS011;45961;53.574;55.878;2023-07-02T00:38:17;8.30;;;7.47;;
60088;SDS011;45961;53.574;55.878;2023-07-02T00:39:18;10.35;;;7.80;;
60088;SDS011;45961;53.574;55.878;2023-07-02T00:40:19;8.77;;;7.97;;
60088;SDS011;45961;53.574;55.878;2023-07-02T00:41:20;8.35;;;7.57;;
60088;SDS011;45961;53.574;55.878;2023-07-02T00:42:21;8.63;;;7.93;;
60088;SDS011;45961;53.574;55.878;2023-07-02T00:43:24;8.52;;;7.72;;
60088;SDS011;45961;53.574;55.878;2023-07-02T00:44:25;8.02;;;7.25;;
60088;SDS011;45961;53.574;55.878;2023-07-02T00:45:26;8.85;;;7.35;;
60088;SDS011;45961;53.574;55.878;2023-07-02T00:46:27;8.50;;;7.30;;
60088;SDS011;45961;53.574;55.878;2023-07-02T00:47:32;10.73;;;7.75;;
60088;SDS011;45961;53.574;55.878;2023-07-02T00:48:34;7.78;;;7.07;;
60088;SDS011;45961;53.574;55.878;2023-07-02T00:49:37;9.05;;;8.15;;
60088;SDS011;45961;53.574;55.878;2023-07-02T00:51:40;11.00;;;7.03;;
60088;SDS011;45961;53.574;55.878;2023-07-02T00:52:41;7.97;;;7.18;;
60088;SDS011;45961;53.574;55.878;2023-07-02T00:53:45;9.27;;;7.07;;
60088;SDS011;45961;53.574;55.878;2023-07-02T00:54:47;7.50;;;6.70;;
60088;SDS011;45961;53.574;55.878;2023-07-02T00:55:48;7.20;;;6.50;;
60088;SDS011;45961;53.574;55.878;2023-07-02T00:56:49;8.18;;;7.30;;
60088;SDS011;45961;53.574;55.878;2023-07-02T00:58:52;7.30;;;6.60;;
60088;SDS011;45961;53.574;55.878;2023-07-02T00:59:59;7.55;;;6.80;;
60088;SDS011;45961;53.574;55.878;2023-07-02T01:01:05;6.60;;;5.88;;
60088;SDS011;45961;53.574;55.878;2023-07-02T01:03:07;7.53;;;6.10;;
60088;SDS011;45961;53.574;55.878;2023-07-02T01:04:08;6.97;;;6.28;;
60088;SDS011;45961;53.574;55.878;2023-07-02T01:05:18;6.15;;;5.55;;
60088;SDS011;45961;53.574;55.878;2023-07-02T01:06:26;6.10;;;5.15;;
60088;SDS011;45961;53.574;55.878;2023-07-02T01:07:28;5.90;;;5.28;;
60088;SDS011;45961;53.574;55.878;2023-07-02T01:08:30;5.80;;;4.95;;
60088;SDS011;45961;53.574;55.878;2023-07-02T01:09:31;5.93;;;5.03;;
60088;SDS011;45961;53.574;55.878;2023-07-02T01:10:32;4.95;;;4.55;;
60088;SDS011;45961;53.574;55.878;2023-07-02T01:11:42;5.88;;;5.28;;
60088;SDS011;45961;53.574;55.878;2023-07-02T01:12:46;5.80;;;5.10;;
60088;SDS011;45961;53.574;55.878;2023-07-02T01:13:48;5.50;;;5.00;;
60088;SDS011;45961;53.574;55.878;2023-07-02T01:14:54;5.35;;;4.85;;
60088;SDS011;45961;53.574;55.878;2023-07-02T01:15:58;5.13;;;4.70;;
60088;SDS011;45961;53.574;55.878;2023-07-02T01:17:01;5.22;;;4.82;;
60088;SDS011;45961;53.574;55.878;2023-07-02T01:18:06;5.05;;;4.47;;
60088;SDS011;45961;53.574;55.878;2023-07-02T01:19:12;4.75;;;4.22;;
60088;SDS011;45961;53.574;55.878;2023-07-02T01:20:28;4.55;;;4.15;;
60088;SDS011;45961;53.574;55.878;2023-07-02T01:21:31;4.38;;;3.97;;
60088;SDS011;45961;53.574;55.878;2023-07-02T01:22:34;4.20;;;3.80;;
60088;SDS011;45961;53.574;55.878;2023-07-02T01:23:36;3.67;;;3.38;;
60088;SDS011;45961;53.574;55.878;2023-07-02T01:24:40;3.90;;;3.60;;
60088;SDS011;45961;53.574;55.878;2023-07-02T01:25:42;4.10;;;3.47;;
60088;SDS011;45961;53.574;55.878;2023-07-02T01:26:45;3.90;;;3.60;;
60088;SDS011;45961;53.574;55.878;2023-07-02T01:27:47;4.00;;;3.70;;
60088;SDS011;45961;53.574;55.878;2023-07-02T01:28:49;3.55;;;3.28;;
60088;SDS011;45961;53.574;55.878;2023-07-02T01:29:51;4.50;;;4.10;;
60088;SDS011;45961;53.574;55.878;2023-07-02T01:30:53;4.18;;;3.78;;
60088;SDS011;45961;53.574;55.878;2023-07-02T01:31:54;3.78;;;3.38;;
60088;SDS011;45961;53.574;55.878;2023-07-02T01:32:55;3.63;;;3.33;;
60088;SDS011;45961;53.574;55.878;2023-07-02T01:33:56;3.70;;;3.40;;
60088;SDS011;45961;53.574;55.878;2023-07-02T01:34:57;3.78;;;3.33;;
60088;SDS011;45961;53.574;55.878;2023-07-02T01:35:59;4.85;;;3.63;;
60088;SDS011;45961;53.574;55.878;2023-07-02T01:37:00;3.88;;;3.53;;
60088;SDS011;45961;53.574;55.878;2023-07-02T01:38:02;3.83;;;3.53;;
60088;SDS011;45961;53.574;55.878;2023-07-02T01:40:05;3.58;;;3.28;;
60088;SDS011;45961;53.574;55.878;2023-07-02T01:41:07;3.42;;;3.13;;
60088;SDS011;45961;53.574;55.878;2023-07-02T01:42:11;3.13;;;2.83;;
60088;SDS011;45961;53.574;55.878;2023-07-02T01:43:15;3.30;;;3.05;;
60088;SDS011;45961;53.574;55.878;2023-07-02T01:44:16;3.00;;;2.80;;
60088;SDS011;45961;53.574;55.878;2023-07-02T01:45:17;3.13;;;2.83;;
60088;SDS011;45961;53.574;55.878;2023-07-02T01:46:19;3.92;;;3.63;;
60088;SDS011;45961;53.574;55.878;2023-07-02T01:47:20;3.15;;;2.95;;
60088;SDS011;45961;53.574;55.878;2023-07-02T01:48:21;3.30;;;3.00;;
60088;SDS011;45961;53.574;55.878;2023-07-02T01:49:22;3.40;;;3.10;;
60088;SDS011;45961;53.574;55.878;2023-07-02T01:50:23;3.53;;;3.08;;
60088;SDS011;45961;53.574;55.878;2023-07-02T01:51:24;3.38;;;3.08;;
60088;SDS011;45961;53.574;55.878;2023-07-02T01:52:25;3.30;;;2.97;;
60088;SDS011;45961;53.574;55.878;2023-07-02T01:53:26;4.15;;;3.10;;
60088;SDS011;45961;53.574;55.878;2023-07-02T01:54:27;3.10;;;2.90;;
60088;SDS011;45961;53.574;55.878;2023-07-02T01:55:29;3.30;;;2.85;;
60088;SDS011;45961;53.574;55.878;2023-07-02T01:56:30;2.63;;;2.42;;
60088;SDS011;45961;53.574;55.878;2023-07-02T01:57:31;3.03;;;2.72;;
60088;SDS011;45961;53.574;55.878;2023-07-02T01:59:33;2.73;;;2.40;;
60088;SDS011;45961;53.574;55.878;2023-07-02T02:00:35;2.70;;;2.50;;
60088;SDS011;45961;53.574;55.878;2023-07-02T02:01:37;6.68;;;2.80;;
60088;SDS011;45961;53.574;55.878;2023-07-02T02:02:43;2.55;;;2.35;;
60088;SDS011;45961;53.574;55.878;2023-07-02T02:03:44;2.97;;;2.58;;
60088;SDS011;45961;53.574;55.878;2023-07-02T02:04:45;2.67;;;2.47;;
60088;SDS011;45961;53.574;55.878;2023-07-02T02:05:46;2.70;;;2.40;;
60088;SDS011;45961;53.574;55.878;2023-07-02T02:06:47;2.17;;;2.00;;
60088;SDS011;45961;53.574;55.878;2023-07-02T02:07:48;2.80;;;2.53;;
60088;SDS011;45961;53.574;55.878;2023-07-02T02:08:49;2.45;;;2.15;;
60088;SDS011;45961;53.574;55.878;2023-07-02T02:09:51;2.50;;;1.95;;
60088;SDS011;45961;53.574;55.878;2023-07-02T02:10:52;2.13;;;1.75;;
60088;SDS011;45961;53.574;55.878;2023-07-02T02:11:53;1.67;;;1.38;;
60088;SDS011;45961;53.574;55.878;2023-07-02T02:12:54;1.50;;;1.40;;
60088;SDS011;45961;53.574;55.878;2023-07-02T02:13:55;2.05;;;1.65;;
60088;SDS011;45961;53.574;55.878;2023-07-02T02:14:56;1.65;;;1.50;;
60088;SDS011;45961;53.574;55.878;2023-07-02T02:15:57;1.75;;;1.60;;
60088;SDS011;45961;53.574;55.878;2023-07-02T02:17:00;1.65;;;1.55;;
60088;SDS011;45961;53.574;55.878;2023-07-02T02:18:01;1.23;;;1.13;;
60088;SDS011;45961;53.574;55.878;2023-07-02T02:19:03;1.65;;;1.50;;
60088;SDS011;45961;53.574;55.878;2023-07-02T02:20:04;1.40;;;1.30;;
60088;SDS011;45961;53.574;55.878;2023-07-02T02:21:07;1.85;;;1.38;;
60088;SDS011;45961;53.574;55.878;2023-07-02T02:22:08;1.80;;;1.30;;
60088;SDS011;45961;53.574;55.878;2023-07-02T02:23:09;1.30;;;1.20;;
60088;SDS011;45961;53.574;55.878;2023-07-02T02:24:10;2.83;;;1.40;;
60088;SDS011;45961;53.574;55.878;2023-07-02T02:26:12;2.03;;;1.38;;
60088;SDS011;45961;53.574;55.878;2023-07-02T02:27:13;1.92;;;1.23;;
60088;SDS011;45961;53.574;55.878;2023-07-02T02:28:14;1.15;;;1.05;;
60088;SDS011;45961;53.574;55.878;2023-07-02T02:29:15;1.52;;;1.30;;
60088;SDS011;45961;53.574;55.878;2023-07-02T02:30:16;2.20;;;1.48;;
60088;SDS011;45961;53.574;55.878;2023-07-02T02:31:18;1.88;;;1.42;;
60088;SDS011;45961;53.574;55.878;2023-07-02T02:33:23;1.75;;;1.38;;
60088;SDS011;45961;53.574;55.878;2023-07-02T02:34:24;1.60;;;1.50;;
60088;SDS011;45961;53.574;55.878;2023-07-02T02:36:27;1.47;;;1.20;;
60088;SDS011;45961;53.574;55.878;2023-07-02T02:37:28;4.10;;;1.55;;
60088;SDS011;45961;53.574;55.878;2023-07-02T02:38:31;1.95;;;1.35;;
60088;SDS011;45961;53.574;55.878;2023-07-02T02:39:35;1.58;;;1.40;;
60088;SDS011;45961;53.574;55.878;2023-07-02T02:40:38;1.67;;;1.58;;
60088;SDS011;45961;53.574;55.878;2023-07-02T02:41:42;1.52;;;1.42;;
60088;SDS011;45961;53.574;55.878;2023-07-02T02:43:44;2.17;;;1.30;;
60088;SDS011;45961;53.574;55.878;2023-07-02T02:44:47;1.65;;;1.20;;
60088;SDS011;45961;53.574;55.878;2023-07-02T02:45:48;1.55;;;1.45;;
60088;SDS011;45961;53.574;55.878;2023-07-02T02:46:49;1.52;;;1.20;;
60088;SDS011;45961;53.574;55.878;2023-07-02T02:47:52;1.25;;;1.15;;
60088;SDS011;45961;53.574;55.878;2023-07-02T02:48:53;1.50;;;1.40;;
60088;SDS011;45961;53.574;55.878;2023-07-02T02:49:54;1.30;;;1.20;;
60088;SDS011;45961;53.574;55.878;2023-07-02T02:50:55;1.75;;;1.45;;
60088;SDS011;45961;53.574;55.878;2023-07-02T02:51:57;1.75;;;1.58;;
60088;SDS011;45961;53.574;55.878;2023-07-02T02:52:58;1.88;;;1.50;;
60088;SDS011;45961;53.574;55.878;2023-07-02T02:53:59;1.45;;;1.35;;
60088;SDS011;45961;53.574;55.878;2023-07-02T02:55:01;1.60;;;1.50;;
60088;SDS011;45961;53.574;55.878;2023-07-02T02:56:06;1.95;;;1.48;;
60088;SDS011;45961;53.574;55.878;2023-07-02T02:57:07;1.63;;;1.52;;
60088;SDS011;45961;53.574;55.878;2023-07-02T02:58:08;1.38;;;1.27;;
60088;SDS011;45961;53.574;55.878;2023-07-02T02:59:09;1.50;;;1.40;;
60088;SDS011;45961;53.574;55.878;2023-07-02T03:00:10;1.42;;;1.33;;
60088;SDS011;45961;53.574;55.878;2023-07-02T03:01:12;2.08;;;1.80;;
60088;SDS011;45961;53.574;55.878;2023-07-02T03:02:14;2.13;;;1.92;;
60088;SDS011;45961;53.574;55.878;2023-07-02T03:03:15;2.20;;;2.00;;
60088;SDS011;45961;53.574;55.878;2023-07-02T03:04:20;2.40;;;1.77;;
60088;SDS011;45961;53.574;55.878;2023-07-02T03:05:24;2.05;;;1.85;;
60088;SDS011;45961;53.574;55.878;2023-07-02T03:06:28;2.85;;;2.10;;
60088;SDS011;45961;53.574;55.878;2023-07-02T03:07:29;1.77;;;1.67;;
60088;SDS011;45961;53.574;55.878;2023-07-02T03:09:32;2.30;;;2.10;;
60088;SDS011;45961;53.574;55.878;2023-07-02T03:10:36;2.10;;;1.90;;
60088;SDS011;45961;53.574;55.878;2023-07-02T03:11:38;2.00;;;1.73;;
60088;SDS011;45961;53.574;55.878;2023-07-02T03:12:54;2.88;;;1.70;;
60088;SDS011;45961;53.574;55.878;2023-07-02T03:13:59;2.03;;;1.83;;
60088;SDS011;45961;53.574;55.878;2023-07-02T03:15:00;1.92;;;1.73;;
60088;SDS011;45961;53.574;55.878;2023-07-02T03:16:07;2.53;;;1.70;;
60088;SDS011;45961;53.574;55.878;2023-07-02T03:18:13;1.30;;;1.20;;
60088;SDS011;45961;53.574;55.878;2023-07-02T03:19:15;2.05;;;1.30;;
60088;SDS011;45961;53.574;55.878;2023-07-02T03:20:16;1.60;;;1.50;;
60088;SDS011;45961;53.574;55.878;2023-07-02T03:27:39;1.40;;;1.30;;
60088;SDS011;45961;53.574;55.878;2023-07-02T03:31:38;1.90;;;1.55;;
60088;SDS011;45961;53.574;55.878;2023-07-02T03:33:43;1.58;;;1.48;;
60088;SDS011;45961;53.574;55.878;2023-07-02T03:35:10;1.50;;;1.40;;
60088;SDS011;45961;53.574;55.878;2023-07-02T03:36:14;2.00;;;1.80;;
60088;SDS011;45961;53.574;55.878;2023-07-02T03:37:16;2.60;;;1.55;;
60088;SDS011;45961;53.574;55.878;2023-07-02T03:38:17;1.83;;;1.65;;
60088;SDS011;45961;53.574;55.878;2023-07-02T03:39:18;2.03;;;1.88;;
60088;SDS011;45961;53.574;55.878;2023-07-02T03:40:19;2.22;;;2.03;;
60088;SDS011;45961;53.574;55.878;2023-07-02T03:41:20;2.22;;;1.85;;
60088;SDS011;45961;53.574;55.878;2023-07-02T03:43:22;2.27;;;1.97;;
60088;SDS011;45961;53.574;55.878;2023-07-02T03:44:27;2.67;;;1.90;;
60088;SDS011;45961;53.574;55.878;2023-07-02T03:45:28;1.80;;;1.70;;
60088;SDS011;45961;53.574;55.878;2023-07-02T03:47:31;1.88;;;1.75;;
60088;SDS011;45961;53.574;55.878;2023-07-02T03:48:34;2.00;;;1.88;;
60088;SDS011;45961;53.574;55.878;2023-07-02T03:49:35;2.47;;;2.28;;
60088;SDS011;45961;53.574;55.878;2023-07-02T03:50:42;2.17;;;1.98;;
60088;SDS011;45961;53.574;55.878;2023-07-02T03:51:43;2.20;;;2.00;;
60088;SDS011;45961;53.574;55.878;2023-07-02T03:52:44;1.77;;;1.67;;
60088;SDS011;45961;53.574;55.878;2023-07-02T03:53:46;2.08;;;1.90;;
60088;SDS011;45961;53.574;55.878;2023-07-02T03:54:47;2.20;;;2.00;;
60088;SDS011;45961;53.574;55.878;2023-07-02T03:55:48;1.90;;;1.80;;
60088;SDS011;45961;53.574;55.878;2023-07-02T03:56:49;2.50;;;2.00;;
60088;SDS011;45961;53.574;55.878;2023-07-02T03:57:50;2.72;;;2.25;;
60088;SDS011;45961;53.574;55.878;2023-07-02T03:58:52;2.80;;;2.50;;
60088;SDS011;45961;53.574;55.878;2023-07-02T03:59:59;2.10;;;1.90;;
60088;SDS011;45961;53.574;55.878;2023-07-02T04:01:00;3.08;;;2.40;;
60088;SDS011;45961;53.574;55.878;2023-07-02T04:02:01;2.28;;;2.08;;
60088;SDS011;45961;53.574;55.878;2023-07-02T04:03:02;2.42;;;2.22;;
60088;SDS011;45961;53.574;55.878;2023-07-02T04:04:06;2.33;;;2.13;;
60088;SDS011;45961;53.574;55.878;2023-07-02T04:05:10;2.55;;;2.35;;
60088;SDS011;45961;53.574;55.878;2023-07-02T04:06:14;2.60;;;2.40;;
60088;SDS011;45961;53.574;55.878;2023-07-02T04:07:15;2.65;;;2.45;;
60088;SDS011;45961;53.574;55.878;2023-07-02T04:08:16;2.42;;;2.22;;
60088;SDS011;45961;53.574;55.878;2023-07-02T04:09:17;3.38;;;3.08;;
60088;SDS011;45961;53.574;55.878;2023-07-02T04:10:22;3.33;;;3.03;;
60088;SDS011;45961;53.574;55.878;2023-07-02T04:11:26;4.07;;;3.53;;
60088;SDS011;45961;53.574;55.878;2023-07-02T04:12:28;3.60;;;3.30;;
60088;SDS011;45961;53.574;55.878;2023-07-02T04:13:34;3.83;;;3.53;;
60088;SDS011;45961;53.574;55.878;2023-07-02T04:14:36;3.60;;;3.30;;
60088;SDS011;45961;53.574;55.878;2023-07-02T04:15:37;3.70;;;3.40;;
60088;SDS011;45961;53.574;55.878;2023-07-02T04:16:38;3.38;;;3.03;;
60088;SDS011;45961;53.574;55.878;2023-07-02T04:17:39;4.15;;;3.75;;
60088;SDS011;45961;53.574;55.878;2023-07-02T04:18:40;5.72;;;3.90;;
60088;SDS011;45961;53.574;55.878;2023-07-02T04:20:42;4.17;;;3.77;;
60088;SDS011;45961;53.574;55.878;2023-07-02T04:21:43;4.78;;;4.38;;
60088;SDS011;45961;53.574;55.878;2023-07-02T04:22:44;4.10;;;3.75;;
60088;SDS011;45961;53.574;55.878;2023-07-02T04:23:46;4.60;;;4.22;;
60088;SDS011;45961;53.574;55.878;2023-07-02T04:24:47;4.80;;;4.32;;
60088;SDS011;45961;53.574;55.878;2023-07-02T04:25:49;5.30;;;4.80;;
60088;SDS011;45961;53.574;55.878;2023-07-02T04:26:50;5.57;;;5.07;;
60088;SDS011;45961;53.574;55.878;2023-07-02T04:27:51;5.00;;;4.50;;
60088;SDS011;45961;53.574;55.878;2023-07-02T04:28:56;5.35;;;4.93;;
60088;SDS011;45961;53.574;55.878;2023-07-02T04:29:58;5.50;;;5.00;;
60088;SDS011;45961;53.574;55.878;2023-07-02T04:30:59;5.47;;;4.97;;
60088;SDS011;45961;53.574;55.878;2023-07-02T04:33:01;5.00;;;4.60;;
60088;SDS011;45961;53.574;55.878;2023-07-02T04:34:03;5.20;;;4.78;;
60088;SDS011;45961;53.574;55.878;2023-07-02T04:35:06;5.65;;;5.13;;
60088;SDS011;45961;53.574;55.878;2023-07-02T04:36:09;5.57;;;5.07;;
60088;SDS011;45961;53.574;55.878;2023-07-02T04:37:10;4.70;;;4.30;;
60088;SDS011;45961;53.574;55.878;2023-07-02T04:39:13;5.10;;;4.70;;
60088;SDS011;45961;53.574;55.878;2023-07-02T04:40:14;5.13;;;4.68;;
60088;SDS011;45961;53.574;55.878;2023-07-02T04:42:18;5.40;;;4.90;;
60088;SDS011;45961;53.574;55.878;2023-07-02T04:43:26;5.35;;;4.85;;
60088;SDS011;45961;53.574;55.878;2023-07-02T04:44:35;4.85;;;4.45;;
60088;SDS011;45961;53.574;55.878;2023-07-02T04:47:04;5.05;;;4.57;;
60088;SDS011;45961;53.574;55.878;2023-07-02T04:48:05;6.00;;;5.05;;
60088;SDS011;45961;53.574;55.878;2023-07-02T04:49:07;5.18;;;4.78;;
60088;SDS011;45961;53.574;55.878;2023-07-02T04:50:08;5.68;;;5.18;;
60088;SDS011;45961;53.574;55.878;2023-07-02T04:51:09;5.18;;;4.78;;
60088;SDS011;45961;53.574;55.878;2023-07-02T04:52:11;5.50;;;5.00;;
60088;SDS011;45961;53.574;55.878;2023-07-02T04:54:13;4.63;;;4.23;;
60088;SDS011;45961;53.574;55.878;2023-07-02T04:56:16;5.28;;;4.78;;
60088;SDS011;45961;53.574;55.878;2023-07-02T04:58:18;4.70;;;4.30;;
60088;SDS011;45961;53.574;55.878;2023-07-02T04:59:20;5.00;;;4.60;;
60088;SDS011;45961;53.574;55.878;2023-07-02T05:00:23;5.40;;;5.00;;
60088;SDS011;45961;53.574;55.878;2023-07-02T05:02:27;4.95;;;4.47;;
60088;SDS011;45961;53.574;55.878;2023-07-02T05:03:28;5.22;;;4.45;;
60088;SDS011;45961;53.574;55.878;2023-07-02T05:04:29;4.65;;;4.25;;
60088;SDS011;45961;53.574;55.878;2023-07-02T05:05:30;4.95;;;4.45;;
60088;SDS011;45961;53.574;55.878;2023-07-02T05:06:31;5.00;;;4.60;;
60088;SDS011;45961;53.574;55.878;2023-07-02T05:07:32;4.95;;;4.55;;
60088;SDS011;45961;53.574;55.878;2023-07-02T05:09:34;5.05;;;4.65;;
60088;SDS011;45961;53.574;55.878;2023-07-02T05:10:35;5.70;;;5.20;;
60088;SDS011;45961;53.574;55.878;2023-07-02T05:11:36;4.88;;;4.47;;
60088;SDS011;45961;53.574;55.878;2023-07-02T05:12:37;5.38;;;4.88;;
60088;SDS011;45961;53.574;55.878;2023-07-02T05:13:38;5.40;;;4.90;;
60088;SDS011;45961;53.574;55.878;2023-07-02T05:14:39;5.22;;;4.72;;
60088;SDS011;45961;53.574;55.878;2023-07-02T05:15:40;5.40;;;4.90;;
60088;SDS011;45961;53.574;55.878;2023-07-02T05:16:41;5.22;;;4.65;;
60088;SDS011;45961;53.574;55.878;2023-07-02T05:18:43;5.63;;;5.13;;
60088;SDS011;45961;53.574;55.878;2023-07-02T05:19:44;5.78;;;5.30;;
60088;SDS011;45961;53.574;55.878;2023-07-02T05:20:45;6.25;;;5.70;;
60088;SDS011;45961;53.574;55.878;2023-07-02T05:21:46;6.30;;;5.72;;
60088;SDS011;45961;53.574;55.878;2023-07-02T05:22:47;6.75;;;6.15;;
60088;SDS011;45961;53.574;55.878;2023-07-02T05:23:48;6.15;;;5.55;;
60088;SDS011;45961;53.574;55.878;2023-07-02T05:24:49;5.82;;;5.22;;
60088;SDS011;45961;53.574;55.878;2023-07-02T05:25:50;5.90;;;5.40;;
60088;SDS011;45961;53.574;55.878;2023-07-02T05:26:51;7.72;;;5.90;;
60088;SDS011;45961;53.574;55.878;2023-07-02T05:27:52;6.13;;;5.63;;
60088;SDS011;45961;53.574;55.878;2023-07-02T05:28:53;5.72;;;5.32;;
60088;SDS011;45961;53.574;55.878;2023-07-02T05:29:54;5.75;;;5.25;;
60088;SDS011;45961;53.574;55.878;2023-07-02T05:30:54;5.70;;;5.20;;
60088;SDS011;45961;53.574;55.878;2023-07-02T05:31:55;5.43;;;4.93;;
60088;SDS011;45961;53.574;55.878;2023-07-02T05:32:56;5.57;;;5.10;;
60088;SDS011;45961;53.574;55.878;2023-07-02T05:33:57;6.05;;;5.55;;
60088;SDS011;45961;53.574;55.878;2023-07-02T05:34:58;6.00;;;5.43;;
60088;SDS011;45961;53.574;55.878;2023-07-02T05:35:59;6.45;;;5.85;;
60088;SDS011;45961;53.574;55.878;2023-07-02T05:38:01;5.97;;;5.10;;
60088;SDS011;45961;53.574;55.878;2023-07-02T05:40:04;5.57;;;5.07;;
60088;SDS011;45961;53.574;55.878;2023-07-02T05:41:05;5.95;;;5.07;;
60088;SDS011;45961;53.574;55.878;2023-07-02T05:42:07;5.78;;;5.28;;
60088;SDS011;45961;53.574;55.878;2023-07-02T05:43:08;5.68;;;5.20;;
60088;SDS011;45961;53.574;55.878;2023-07-02T05:44:09;5.82;;;5.43;;
60088;SDS011;45961;53.574;55.878;2023-07-02T05:45:10;5.45;;;4.95;;
60088;SDS011;45961;53.574;55.878;2023-07-02T05:46:11;4.97;;;4.57;;
60088;SDS011;45961;53.574;55.878;2023-07-02T05:47:14;5.13;;;4.72;;
60088;SDS011;45961;53.574;55.878;2023-07-02T05:49:16;5.90;;;5.40;;
60088;SDS011;45961;53.574;55.878;2023-07-02T05:50:17;5.32;;;4.93;;
60088;SDS011;45961;53.574;55.878;2023-07-02T05:51:21;5.38;;;4.90;;
60088;SDS011;45961;53.574;55.878;2023-07-02T05:52:24;5.40;;;4.90;;
60088;SDS011;45961;53.574;55.878;2023-07-02T05:53:25;5.25;;;4.85;;
60088;SDS011;45961;53.574;55.878;2023-07-02T05:54:26;5.20;;;4.80;;
60088;SDS011;45961;53.574;55.878;2023-07-02T05:55:27;5.40;;;4.95;;
60088;SDS011;45961;53.574;55.878;2023-07-02T05:56:29;5.63;;;5.00;;
60088;SDS011;45961;53.574;55.878;2023-07-02T05:57:30;5.25;;;4.78;;
60088;SDS011;45961;53.574;55.878;2023-07-02T05:58:31;4.85;;;4.45;;
60088;SDS011;45961;53.574;55.878;2023-07-02T05:59:32;4.63;;;4.32;;
60088;SDS011;45961;53.574;55.878;2023-07-02T06:00:36;4.85;;;4.45;;
60088;SDS011;45961;53.574;55.878;2023-07-02T06:02:38;5.23;;;4.70;;
60088;SDS011;45961;53.574;55.878;2023-07-02T06:03:41;4.90;;;4.50;;
60088;SDS011;45961;53.574;55.878;2023-07-02T06:04:44;4.75;;;4.38;;
60088;SDS011;45961;53.574;55.878;2023-07-02T06:05:48;5.18;;;4.78;;
60088;SDS011;45961;53.574;55.878;2023-07-02T06:06:52;4.90;;;4.50;;
60088;SDS011;45961;53.574;55.878;2023-07-02T06:07:55;5.15;;;4.75;;
60088;SDS011;45961;53.574;55.878;2023-07-02T06:08:58;4.75;;;4.35;;
60088;SDS011;45961;53.574;55.878;2023-07-02T06:09:59;4.50;;;4.13;;
60088;SDS011;45961;53.574;55.878;2023-07-02T06:11:00;5.22;;;4.72;;
60088;SDS011;45961;53.574;55.878;2023-07-02T06:12:02;4.93;;;4.53;;
60088;SDS011;45961;53.574;55.878;2023-07-02T06:13:03;5.18;;;4.78;;
60088;SDS011;45961;53.574;55.878;2023-07-02T06:15:05;4.97;;;4.57;;
60088;SDS011;45961;53.574;55.878;2023-07-02T06:16:07;4.78;;;4.43;;
60088;SDS011;45961;53.574;55.878;2023-07-02T06:17:08;5.35;;;4.95;;
60088;SDS011;45961;53.574;55.878;2023-07-02T06:18:09;5.35;;;4.85;;
60088;SDS011;45961;53.574;55.878;2023-07-02T06:19:10;4.95;;;4.55;;
60088;SDS011;45961;53.574;55.878;2023-07-02T06:20:11;5.03;;;4.57;;
60088;SDS011;45961;53.574;55.878;2023-07-02T06:21:13;5.45;;;4.95;;
60088;SDS011;45961;53.574;55.878;2023-07-02T06:23:14;5.30;;;4.90;;
60088;SDS011;45961;53.574;55.878;2023-07-02T06:24:15;5.00;;;4.53;;
60088;SDS011;45961;53.574;55.878;2023-07-02T06:25:16;5.10;;;4.65;;
60088;SDS011;45961;53.574;55.878;2023-07-02T06:27:19;4.43;;;4.10;;
60088;SDS011;45961;53.574;55.878;2023-07-02T06:28:20;4.88;;;3.83;;
60088;SDS011;45961;53.574;55.878;2023-07-02T06:29:21;3.80;;;3.55;;
60088;SDS011;45961;53.574;55.878;2023-07-02T06:30:26;4.05;;;3.75;;
60088;SDS011;45961;53.574;55.878;2023-07-02T06:31:27;4.40;;;4.07;;
60088;SDS011;45961;53.574;55.878;2023-07-02T06:33:29;4.30;;;3.90;;
60088;SDS011;45961;53.574;55.878;2023-07-02T06:34:30;4.45;;;3.72;;
60088;SDS011;45961;53.574;55.878;2023-07-02T06:35:51;4.17;;;3.77;;
60088;SDS011;45961;53.574;55.878;2023-07-02T06:36:52;3.72;;;3.42;;
60088;SDS011;45961;53.574;55.878;2023-07-02T06:37:53;4.25;;;3.85;;
60088;SDS011;45961;53.574;55.878;2023-07-02T06:38:55;3.92;;;3.63;;
60088;SDS011;45961;53.574;55.878;2023-07-02T06:40:57;4.07;;;3.78;;
60088;SDS011;45961;53.574;55.878;2023-07-02T06:41:58;3.65;;;3.35;;
60088;SDS011;45961;53.574;55.878;2023-07-02T06:43:03;4.55;;;4.15;;
60088;SDS011;45961;53.574;55.878;2023-07-02T06:44:05;4.13;;;3.83;;
60088;SDS011;45961;53.574;55.878;2023-07-02T06:45:07;4.20;;;3.90;;
60088;SDS011;45961;53.574;55.878;2023-07-02T06:46:09;4.57;;;4.28;;
60088;SDS011;45961;53.574;55.878;2023-07-02T06:47:11;4.50;;;4.20;;
60088;SDS011;45961;53.574;55.878;2023-07-02T06:48:12;4.68;;;4.30;;
60088;SDS011;45961;53.574;55.878;2023-07-02T06:49:16;5.03;;;4.63;;
60088;SDS011;45961;53.574;55.878;2023-07-02T06:50:18;4.78;;;4.38;;
60088;SDS011;45961;53.574;55.878;2023-07-02T06:52:21;4.88;;;4.47;;
60088;SDS011;45961;53.574;55.878;2023-07-02T06:53:22;5.75;;;3.80;;
60088;SDS011;45961;53.574;55.878;2023-07-02T06:54:23;4.10;;;3.80;;